Time;durP1;ratioP1;P1;durP2;ratioP2;P2;SDS_P1;SDS_P2;PMS_P1;PMS_P2;Temp;Humidity;BMP_temperature;BMP_pressure;BME280_temperature;BME280_humidity;BME280_pressure;Samples;Min_cycle;Max_cycle;Signal;HPM_P1;HPM_P2
2022/11/29 00:00:30;;;;;;;;;;;;;;;;;;4983730;28;19914;-83
2022/11/29 00:02:55;;;;;;;;;;;;;;;;;;4976892;28;19920;-79
2022/11/29 00:05:20;;;;;;;;;;;;;;;;;;4965779;28;20044;-80
2022/11/29 00:07:46;;;;;;;;;;;;;;;;;;4974448;28;19918;-80
2022/11/29 00:10:11;;;;;;;;;;;;;;;;;;4977521;28;19910;-78
2022/11/29 00:12:36;;;;;;;;;;;;;;;;;;4977006;28;19921;-75
2022/11/29 00:15:01;;;;;;;;;;;;;;;;;;4975490;28;19949;-75
2022/11/29 00:17:26;;;;;;;;;;;;;;;;;;4973256;28;20509;-74
2022/11/29 00:19:52;;;;;;;;;;;;;;;;;;4970800;28;19922;-74
2022/11/29 00:22:17;;;;;;;;;;;;;;;;;;4971005;28;19910;-73
2022/11/29 00:24:42;;;;;;;;;;;;;;;;;;4970537;28;20041;-74
2022/11/29 00:27:07;;;;;;;;;;;;;;;;;;4968750;28;19914;-76
2022/11/29 00:29:32;;;;;;;;;;;;;;;;;;4964942;28;19910;-72
2022/11/29 00:31:57;;;;;;;;;;;;;;;;;;4975022;28;19914;-78
2022/11/29 00:34:22;;;;;;;;;;;;;;;;;;4987109;28;20353;-74
2022/11/29 00:36:47;;;;;;;;;;;;;;;;;;4975369;28;19921;-74
2022/11/29 00:39:13;;;;;;;;;;;;;;;;;;4974633;28;20404;-72
2022/11/29 00:41:38;;;;;;;;;;;;;;;;;;4974234;28;19917;-73
2022/11/29 00:44:03;;;;;;;;;;;;;;;;;;4974242;28;20452;-74
2022/11/29 00:46:28;;;;;;;;;;;;;;;;;;4974194;28;19910;-72
2022/11/29 00:48:53;;;;;;;;;;;;;;;;;;4971828;28;19997;-73
2022/11/29 00:51:19;;;;;;;;;;;;;;;;;;4972528;28;19956;-82
2022/11/29 00:53:44;;;;;;;;;;;;;;;;;;4976177;28;19910;-76
2022/11/29 00:56:10;;;;;;;;;;;;;;;;;;4971544;28;19910;-76
2022/11/29 00:58:35;;;;;;;;;;;;;;;;;;4979036;28;19922;-78
2022/11/29 01:01:00;;;;;;;;;;;;;;;;;;4979296;28;19944;-76
2022/11/29 01:03:25;;;;;;;;;;;;;;;;;;4976526;28;19920;-76
2022/11/29 01:05:50;;;;;;;;;;;;;;;;;;4979693;28;19952;-76
2022/11/29 01:08:16;;;;;;;;;;;;;;;;;;4973857;28;19921;-73
2022/11/29 01:10:41;;;;;;;;;;;;;;;;;;4979112;28;19909;-78
2022/11/29 01:13:06;;;;;;;;;;;;;;;;;;4975255;28;19922;-78
2022/11/29 01:15:31;;;;;;;;;;;;;;;;;;4974486;28;19910;-79
2022/11/29 01:26:02;;;;;;;;;;;;;;;;;;5071083;22;19928;-75
2022/11/29 01:28:48;;;;;;;;;;;;;;;;;;5055776;28;19913;-77
2022/11/29 01:31:35;;;;;;;;;;;;;;;;;;5050086;28;19919;-78
2022/11/29 01:34:00;;;;;;;;;;;;;;;;;;5055578;28;19912;-75
2022/11/29 01:36:25;;;;;;;;;;;;;;;;;;5028023;28;19982;-76
2022/11/29 01:38:50;;;;;;;;;;;;;;;;;;5046405;28;19921;-72
2022/11/29 01:41:15;;;;;;;;;;;;;;;;;;5038993;28;19999;-73
2022/11/29 01:43:40;;;;;;;;;;;;;;;;;;5052647;28;20038;-72
2022/11/29 01:46:06;;;;;;;;;;;;;;;;;;5056091;28;19978;-71
2022/11/29 01:48:31;;;;;;;;;;;;;;;;;;5031827;28;19951;-72
2022/11/29 01:50:56;;;;;;;;;;;;;;;;;;5052046;28;19971;-71
2022/11/29 01:53:21;;;;;;;;;;;;;;;;;;5056125;28;19913;-72
2022/11/29 01:55:46;;;;;;;;;;;;;;;;;;5057475;28;19917;-72
2022/11/29 01:58:11;;;;;;;;;;;;;;;;;;5063806;28;19921;-75
2022/11/29 02:00:36;;;;;;;;;;;;;;;;;;5055362;28;19912;-80
2022/11/29 02:03:02;;;;;;;;;;;;;;;;;;5044908;28;19913;-79
2022/11/29 02:05:27;;;;;;;;;;;;;;;;;;5056638;28;20366;-79
2022/11/29 02:07:52;;;;;;;;;;;;;;;;;;5056303;28;19916;-80
2022/11/29 02:10:17;;;;;;;;;;;;;;;;;;5044738;28;19978;-79
2022/11/29 02:12:42;;;;;;;;;;;;;;;;;;5036385;28;19921;-79
2022/11/29 02:15:07;;;;;;;;;;;;;;;;;;5037360;28;19919;-74
2022/11/29 02:17:32;;;;;;;;;;;;;;;;;;5038623;28;19908;-82
2022/11/29 02:19:57;;;;;;;;;;;;;;;;;;5039196;28;19939;-72
2022/11/29 02:22:23;;;;;;;;;;;;;;;;;;5037725;28;19932;-72
2022/11/29 02:24:48;;;;;;;;;;;;;;;;;;5054885;28;19912;-72
2022/11/29 02:27:13;;;;;;;;;;;;;;;;;;5036480;28;19917;-73
2022/11/29 02:29:38;;;;;;;;;;;;;;;;;;5062423;28;19915;-72
2022/11/29 02:32:03;;;;;;;;;;;;;;;;;;5055261;28;19913;-72
2022/11/29 02:34:28;;;;;;;;;;;;;;;;;;5033680;28;19917;-72
2022/11/29 02:36:54;;;;;;;;;;;;;;;;;;5049832;28;20015;-76
2022/11/29 02:39:19;;;;;;;;;;;;;;;;;;5044216;28;19959;-76
2022/11/29 02:41:44;;;;;;;;;;;;;;;;;;5033439;28;19920;-76
2022/11/29 02:44:09;;;;;;;;;;;;;;;;;;5049871;28;19912;-75
2022/11/29 02:46:34;;;;;;;;;;;;;;;;;;5053423;28;20356;-77
2022/11/29 02:49:00;;;;;;;;;;;;;;;;;;5035223;28;19913;-76
2022/11/29 02:51:25;;;;;;;;;;;;;;;;;;5035473;28;19917;-76
2022/11/29 02:53:50;;;;;;;;;;;;;;;;;;5027906;28;19935;-79
2022/11/29 02:56:15;;;;;;;;;;;;;;;;;;5033732;28;20362;-80
2022/11/29 02:58:40;;;;;;;;;;;;;;;;;;5048585;28;20375;-78
2022/11/29 03:01:06;;;;;;;;;;;;;;;;;;5051818;28;19909;-78
2022/11/29 03:03:31;;;;;;;;;;;;;;;;;;5033769;28;20076;-79
2022/11/29 03:05:56;;;;;;;;;;;;;;;;;;5031939;28;20362;-79
2022/11/29 03:08:21;;;;;;;;;;;;;;;;;;5032950;28;19917;-78
2022/11/29 03:10:46;;;;;;;;;;;;;;;;;;5030746;28;19924;-84
2022/11/29 03:13:11;;;;;;;;;;;;;;;;;;5024468;28;20267;-73
2022/11/29 03:15:37;;;;;;;;;;;;;;;;;;5051958;28;20666;-74
2022/11/29 03:18:02;;;;;;;;;;;;;;;;;;5052001;28;20062;-75
2022/11/29 03:20:27;;;;;;;;;;;;;;;;;;5050478;28;19971;-74
2022/11/29 03:22:52;;;;;;;;;;;;;;;;;;5035443;28;19916;-73
2022/11/29 03:25:18;;;;;;;;;;;;;;;;;;5035065;28;19919;-74
2022/11/29 03:27:43;;;;;;;;;;;;;;;;;;5048345;28;19917;-75
2022/11/29 03:30:08;;;;;;;;;;;;;;;;;;5029686;28;19913;-74
2022/11/29 03:32:33;;;;;;;;;;;;;;;;;;5034127;28;19915;-79
2022/11/29 03:34:58;;;;;;;;;;;;;;;;;;5054606;28;19944;-78
2022/11/29 03:37:24;;;;;;;;;;;;;;;;;;5033445;28;19921;-80
2022/11/29 03:39:49;;;;;;;;;;;;;;;;;;5045619;28;19920;-79
2022/11/29 03:42:14;;;;;;;;;;;;;;;;;;5034633;28;19913;-78
2022/11/29 03:44:39;;;;;;;;;;;;;;;;;;5052348;28;19920;-79
2022/11/29 03:47:04;;;;;;;;;;;;;;;;;;5029149;28;19916;-74
2022/11/29 03:49:30;;;;;;;;;;;;;;;;;;5029007;28;19913;-73
2022/11/29 03:51:55;;;;;;;;;;;;;;;;;;5046986;28;19966;-74
2022/11/29 03:54:20;;;;;;;;;;;;;;;;;;5030069;28;20003;-74
2022/11/29 03:56:45;;;;;;;;;;;;;;;;;;5032379;28;20009;-74
2022/11/29 03:59:11;;;;;;;;;;;;;;;;;;5026770;28;19967;-74
2022/11/29 04:01:36;;;;;;;;;;;;;;;;;;5047539;28;19917;-75
2022/11/29 04:04:01;;;;;;;;;;;;;;;;;;5050391;28;19928;-74
2022/11/29 04:06:26;;;;;;;;;;;;;;;;;;5055253;28;19921;-74
2022/11/29 04:08:51;;;;;;;;;;;;;;;;;;5024987;28;20291;-77
2022/11/29 04:11:17;;;;;;;;;;;;;;;;;;5050503;28;20333;-77
2022/11/29 04:13:42;;;;;;;;;;;;;;;;;;5034283;28;19916;-76
2022/11/29 04:16:07;;;;;;;;;;;;;;;;;;5049976;28;20019;-76
2022/11/29 04:18:32;;;;;;;;;;;;;;;;;;5044916;28;20358;-76
2022/11/29 04:20:57;;;;;;;;;;;;;;;;;;5032103;28;20343;-76
2022/11/29 04:23:22;;;;;;;;;;;;;;;;;;5051553;28;19917;-76
2022/11/29 04:25:48;;;;;;;;;;;;;;;;;;5034252;28;19912;-82
2022/11/29 04:28:13;;;;;;;;;;;;;;;;;;5027661;28;19923;-74
2022/11/29 04:30:38;;;;;;;;;;;;;;;;;;5029963;28;20001;-74
2022/11/29 04:33:03;;;;;;;;;;;;;;;;;;5050661;28;19913;-74
2022/11/29 04:35:29;;;;;;;;;;;;;;;;;;5048159;28;19942;-74
2022/11/29 04:37:54;;;;;;;;;;;;;;;;;;5059277;28;19917;-74
2022/11/29 04:40:19;;;;;;;;;;;;;;;;;;5025189;28;19925;-75
2022/11/29 04:42:45;;;;;;;;;;;;;;;;;;5031775;28;19919;-73
2022/11/29 04:45:10;;;;;;;;;;;;;;;;;;5033445;28;19917;-72
2022/11/29 04:47:35;;;;;;;;;;;;;;;;;;5026363;28;19913;-79
2022/11/29 04:50:00;;;;;;;;;;;;;;;;;;5049257;28;20408;-79
2022/11/29 04:52:26;;;;;;;;;;;;;;;;;;5031040;28;19948;-79
2022/11/29 04:54:51;;;;;;;;;;;;;;;;;;5049228;28;19917;-81
2022/11/29 04:57:16;;;;;;;;;;;;;;;;;;5048936;28;19924;-78
2022/11/29 04:59:41;;;;;;;;;;;;;;;;;;5046154;28;19921;-79
2022/11/29 05:02:06;;;;;;;;;;;;;;;;;;5030135;28;20363;-74
2022/11/29 05:04:32;;;;;;;;;;;;;;;;;;5030790;28;19917;-74
2022/11/29 05:06:57;;;;;;;;;;;;;;;;;;5045578;28;19913;-74
2022/11/29 05:09:23;;;;;;;;;;;;;;;;;;5055980;28;19923;-74
2022/11/29 05:11:48;;;;;;;;;;;;;;;;;;5050268;28;19913;-75
2022/11/29 05:14:13;;;;;;;;;;;;;;;;;;5034088;28;19944;-73
2022/11/29 05:16:38;;;;;;;;;;;;;;;;;;5046483;28;20250;-74
2022/11/29 05:19:03;;;;;;;;;;;;;;;;;;5050583;28;19924;-78
2022/11/29 05:21:29;;;;;;;;;;;;;;;;;;5047239;28;19916;-73
2022/11/29 05:23:54;;;;;;;;;;;;;;;;;;5049569;28;20346;-72
2022/11/29 05:26:19;;;;;;;;;;;;;;;;;;5049822;28;19913;-72
2022/11/29 05:28:44;;;;;;;;;;;;;;;;;;5050067;28;19945;-73
2022/11/29 05:31:09;;;;;;;;;;;;;;;;;;5051183;28;19913;-72
2022/11/29 05:33:35;;;;;;;;;;;;;;;;;;5051491;28;20263;-71
2022/11/29 05:36:00;;;;;;;;;;;;;;;;;;5045542;28;20355;-72
2022/11/29 05:38:25;;;;;;;;;;;;;;;;;;5042732;28;19955;-71
2022/11/29 05:40:50;;;;;;;;;;;;;;;;;;5035207;28;19909;-72
2022/11/29 05:43:15;;;;;;;;;;;;;;;;;;5053691;28;19916;-72
2022/11/29 05:45:41;;;;;;;;;;;;;;;;;;5045692;28;20465;-74
2022/11/29 05:48:06;;;;;;;;;;;;;;;;;;5044275;28;19967;-72
2022/11/29 05:50:31;;;;;;;;;;;;;;;;;;5030088;28;19959;-71
2022/11/29 05:52:56;;;;;;;;;;;;;;;;;;5052038;28;19917;-72
2022/11/29 05:55:21;;;;;;;;;;;;;;;;;;5030438;28;19916;-73
2022/11/29 05:57:47;;;;;;;;;;;;;;;;;;5051168;28;19924;-79
2022/11/29 06:00:13;;;;;;;;;;;;;;;;;;5046724;28;19920;-72
2022/11/29 06:02:38;;;;;;;;;;;;;;;;;;5049670;28;19968;-72
2022/11/29 06:05:05;;;;;;;;;;;;;;;;;;5030829;28;19919;-74
2022/11/29 06:07:30;;;;;;;;;;;;;;;;;;5031882;28;19960;-74
2022/11/29 06:09:55;;;;;;;;;;;;;;;;;;5050634;28;19913;-75
2022/11/29 06:12:20;;;;;;;;;;;;;;;;;;5037593;28;20183;-73
2022/11/29 06:14:46;;;;;;;;;;;;;;;;;;5056550;28;19912;-70
2022/11/29 06:17:11;;;;;;;;;;;;;;;;;;5036437;28;19999;-69
2022/11/29 06:19:36;;;;;;;;;;;;;;;;;;5051356;28;19971;-74
2022/11/29 06:22:01;;;;;;;;;;;;;;;;;;5053287;28;19912;-75
2022/11/29 06:24:27;;;;;;;;;;;;;;;;;;5046887;28;19913;-74
2022/11/29 06:26:52;;;;;;;;;;;;;;;;;;5034164;28;20378;-73
2022/11/29 06:29:18;;;;;;;;;;;;;;;;;;5037826;28;20278;-76
2022/11/29 06:31:43;;;;;;;;;;;;;;;;;;5034213;28;19951;-75
2022/11/29 06:34:08;;;;;;;;;;;;;;;;;;5030930;28;20012;-73
2022/11/29 06:36:34;;;;;;;;;;;;;;;;;;5025347;28;19917;-76
2022/11/29 06:38:59;;;;;;;;;;;;;;;;;;5050395;28;20011;-67
2022/11/29 06:41:24;;;;;;;;;;;;;;;;;;5050459;28;19916;-67
2022/11/29 06:43:49;;;;;;;;;;;;;;;;;;5051891;28;19912;-67
2022/11/29 06:46:15;;;;;;;;;;;;;;;;;;5061313;28;20271;-67
2022/11/29 06:48:40;;;;;;;;;;;;;;;;;;5044245;28;19921;-69
2022/11/29 06:51:05;;;;;;;;;;;;;;;;;;5052236;28;19919;-65
2022/11/29 06:53:30;;;;;;;;;;;;;;;;;;5053258;28;20176;-63
2022/11/29 06:55:55;;;;;;;;;;;;;;;;;;5053851;28;19924;-64
2022/11/29 06:58:20;;;;;;;;;;;;;;;;;;5053128;28;20307;-63
2022/11/29 07:00:46;;;;;;;;;;;;;;;;;;5049756;28;19936;-63
2022/11/29 07:03:11;;;;;;;;;;;;;;;;;;5053285;28;19924;-63
2022/11/29 07:05:36;;;;;;;;;;;;;;;;;;5034812;28;20278;-63
2022/11/29 07:08:01;;;;;;;;;;;;;;;;;;5056221;28;19966;-64
2022/11/29 07:10:26;;;;;;;;;;;;;;;;;;5034831;28;19917;-83
2022/11/29 07:12:52;;;;;;;;;;;;;;;;;;5038527;28;20400;-74
2022/11/29 07:15:17;;;;;;;;;;;;;;;;;;5053057;28;20055;-74
2022/11/29 07:17:42;;;;;;;;;;;;;;;;;;5043802;28;19909;-74
2022/11/29 07:20:07;;;;;;;;;;;;;;;;;;5035435;28;19927;-75
2022/11/29 07:22:32;;;;;;;;;;;;;;;;;;5053892;28;19913;-75
2022/11/29 07:24:58;;;;;;;;;;;;;;;;;;5036550;28;19916;-74
2022/11/29 07:27:23;;;;;;;;;;;;;;;;;;5054880;28;19960;-73
2022/11/29 07:29:48;;;;;;;;;;;;;;;;;;5031627;28;19917;-72
2022/11/29 07:32:13;;;;;;;;;;;;;;;;;;5041935;28;19912;-83
2022/11/29 07:34:38;;;;;;;;;;;;;;;;;;5025036;28;19959;-83
2022/11/29 07:37:04;;;;;;;;;;;;;;;;;;5027488;28;20366;-83
2022/11/29 07:39:29;;;;;;;;;;;;;;;;;;5027223;28;19925;-83
2022/11/29 07:41:54;;;;;;;;;;;;;;;;;;5036726;28;19913;-83
2022/11/29 07:44:20;;;;;;;;;;;;;;;;;;5024217;28;19913;-83
2022/11/29 07:46:45;;;;;;;;;;;;;;;;;;5023346;28;20022;-81
2022/11/29 07:49:10;;;;;;;;;;;;;;;;;;5058210;28;20295;-75
2022/11/29 07:51:35;;;;;;;;;;;;;;;;;;5038640;28;20366;-72
2022/11/29 07:54:01;;;;;;;;;;;;;;;;;;5053820;28;20367;-72
2022/11/29 07:56:26;;;;;;;;;;;;;;;;;;5035818;28;20291;-72
2022/11/29 07:58:51;;;;;;;;;;;;;;;;;;5035302;28;19920;-73
2022/11/29 08:01:16;;;;;;;;;;;;;;;;;;5052003;28;20373;-72
2022/11/29 08:03:41;;;;;;;;;;;;;;;;;;5053934;28;20278;-72
2022/11/29 08:06:06;;;;;;;;;;;;;;;;;;5035421;28;19924;-73
2022/11/29 08:08:32;;;;;;;;;;;;;;;;;;5036525;28;19912;-73
2022/11/29 08:10:57;;;;;;;;;;;;;;;;;;5052080;28;19944;-73
2022/11/29 08:13:22;;;;;;;;;;;;;;;;;;5035787;28;20499;-73
2022/11/29 08:15:47;;;;;;;;;;;;;;;;;;5035754;28;19912;-73
2022/11/29 08:18:12;;;;;;;;;;;;;;;;;;5053638;28;19932;-74
2022/11/29 08:20:40;;;;;;;;;;;;;;;;;;5037663;28;19974;-74
2022/11/29 08:23:05;;;;;;;;;;;;;;;;;;5040375;28;19912;-74
2022/11/29 08:25:30;;;;;;;;;;;;;;;;;;5034831;28;20413;-72
2022/11/29 08:27:55;;;;;;;;;;;;;;;;;;5051318;28;20360;-74
2022/11/29 08:30:23;;;;;;;;;;;;;;;;;;5051431;28;20347;-75
2022/11/29 08:32:48;;;;;;;;;;;;;;;;;;5034884;28;20482;-73
2022/11/29 08:35:14;;;;;;;;;;;;;;;;;;5051809;28;19920;-74
2022/11/29 08:37:39;;;;;;;;;;;;;;;;;;5034567;28;19918;-74
2022/11/29 08:40:04;;;;;;;;;;;;;;;;;;5051686;28;19924;-73
2022/11/29 08:42:29;;;;;;;;;;;;;;;;;;5053557;28;19912;-83
2022/11/29 08:44:54;;;;;;;;;;;;;;;;;;5035511;28;19912;-72
2022/11/29 08:47:35;;;;;;;;;;;;;;;;;;5035121;28;19995;-72
2022/11/29 08:50:00;;;;;;;;;;;;;;;;;;5052200;28;20280;-72
2022/11/29 08:55:09;;;;;;;;;;;;;;;;;;5057281;28;19912;-73
2022/11/29 08:57:34;;;;;;;;;;;;;;;;;;5034634;28;19917;-73
2022/11/29 08:59:59;;;;;;;;;;;;;;;;;;5030525;28;20003;-73
2022/11/29 09:02:25;;;;;;;;;;;;;;;;;;5034346;28;20351;-73
2022/11/29 09:04:50;;;;;;;;;;;;;;;;;;5034050;28;20331;-72
2022/11/29 09:07:15;;;;;;;;;;;;;;;;;;5034821;28;19913;-72
2022/11/29 09:09:40;;;;;;;;;;;;;;;;;;5034329;28;20410;-72
2022/11/29 09:12:07;;;;;;;;;;;;;;;;;;5033890;28;20426;-72
2022/11/29 09:14:32;;;;;;;;;;;;;;;;;;5051262;28;19917;-72
2022/11/29 09:16:57;;;;;;;;;;;;;;;;;;5033254;28;19913;-72
2022/11/29 09:19:22;;;;;;;;;;;;;;;;;;5051215;28;20359;-82
2022/11/29 09:21:48;;;;;;;;;;;;;;;;;;5034650;28;19919;-82
2022/11/29 09:24:13;;;;;;;;;;;;;;;;;;5031414;28;19908;-84
2022/11/29 09:26:39;;;;;;;;;;;;;;;;;;5058933;28;20347;-83
2022/11/29 09:29:04;;;;;;;;;;;;;;;;;;5021389;28;19936;-82
2022/11/29 09:31:29;;;;;;;;;;;;;;;;;;5033846;28;20348;-83
2022/11/29 09:33:55;;;;;;;;;;;;;;;;;;5052921;28;19913;-83
2022/11/29 09:36:20;;;;;;;;;;;;;;;;;;5034004;28;20402;-83
2022/11/29 09:38:45;;;;;;;;;;;;;;;;;;5034668;28;20374;-74
2022/11/29 09:41:10;;;;;;;;;;;;;;;;;;5052609;28;20374;-81
2022/11/29 09:43:36;;;;;;;;;;;;;;;;;;5038651;28;19913;-82
2022/11/29 09:46:01;;;;;;;;;;;;;;;;;;5037941;28;20358;-82
2022/11/29 09:48:26;;;;;;;;;;;;;;;;;;5038280;28;19916;-81
2022/11/29 09:50:51;;;;;;;;;;;;;;;;;;5037862;28;19913;-82
2022/11/29 09:53:16;;;;;;;;;;;;;;;;;;5038333;28;20385;-80
2022/11/29 09:55:42;;;;;;;;;;;;;;;;;;5037655;28;20299;-74
2022/11/29 09:58:07;;;;;;;;;;;;;;;;;;5045288;28;20362;-73
2022/11/29 10:00:32;;;;;;;;;;;;;;;;;;5037914;28;19917;-82
2022/11/29 10:02:57;;;;;;;;;;;;;;;;;;5056336;28;19935;-82
2022/11/29 10:05:23;;;;;;;;;;;;;;;;;;5054247;28;19959;-83
2022/11/29 10:07:48;;;;;;;;;;;;;;;;;;5037791;28;19921;-85
2022/11/29 10:10:13;;;;;;;;;;;;;;;;;;5056151;28;20387;-82
2022/11/29 10:12:38;;;;;;;;;;;;;;;;;;5038248;28;19959;-82
2022/11/29 10:15:03;;;;;;;;;;;;;;;;;;5036201;28;19912;-74
2022/11/29 10:17:29;;;;;;;;;;;;;;;;;;5037901;28;19919;-74
2022/11/29 10:19:54;;;;;;;;;;;;;;;;;;5054814;28;19924;-73
2022/11/29 10:22:19;;;;;;;;;;;;;;;;;;5037366;28;20295;-75
2022/11/29 10:24:44;;;;;;;;;;;;;;;;;;5055112;28;20271;-74
2022/11/29 10:27:09;;;;;;;;;;;;;;;;;;5037612;28;19912;-74
2022/11/29 10:29:35;;;;;;;;;;;;;;;;;;5062853;28;19981;-74
2022/11/29 10:32:04;;;;;;;;;;;;;;;;;;5056472;28;19982;-73
2022/11/29 10:34:29;;;;;;;;;;;;;;;;;;5036259;28;19948;-82
2022/11/29 10:36:54;;;;;;;;;;;;;;;;;;5055126;28;20363;-73
2022/11/29 10:39:19;;;;;;;;;;;;;;;;;;5037438;28;19971;-74
2022/11/29 10:41:45;;;;;;;;;;;;;;;;;;5037269;28;20000;-72
2022/11/29 10:44:10;;;;;;;;;;;;;;;;;;5037607;28;19913;-73
2022/11/29 10:46:35;;;;;;;;;;;;;;;;;;5053824;28;20394;-73
2022/11/29 10:49:00;;;;;;;;;;;;;;;;;;5037380;28;19913;-72
2022/11/29 10:51:25;;;;;;;;;;;;;;;;;;5036558;28;19916;-77
2022/11/29 10:53:51;;;;;;;;;;;;;;;;;;5036816;28;19923;-73
2022/11/29 10:56:16;;;;;;;;;;;;;;;;;;5036401;28;19913;-73
2022/11/29 10:58:41;;;;;;;;;;;;;;;;;;5054982;28;19912;-73
2022/11/29 11:01:06;;;;;;;;;;;;;;;;;;5042712;28;20309;-73
2022/11/29 11:03:31;;;;;;;;;;;;;;;;;;5039479;28;19913;-73
2022/11/29 11:05:56;;;;;;;;;;;;;;;;;;5054582;28;19919;-73
2022/11/29 11:08:22;;;;;;;;;;;;;;;;;;5055123;28;19913;-72
2022/11/29 11:10:47;;;;;;;;;;;;;;;;;;5036691;28;19913;-74
2022/11/29 11:13:12;;;;;;;;;;;;;;;;;;5038490;28;19913;-84
2022/11/29 11:15:37;;;;;;;;;;;;;;;;;;5036298;28;19912;-84
2022/11/29 11:18:03;;;;;;;;;;;;;;;;;;5037136;28;20430;-83
2022/11/29 11:20:29;;;;;;;;;;;;;;;;;;5024835;28;19956;-85
2022/11/29 11:22:54;;;;;;;;;;;;;;;;;;5036862;28;20390;-85
2022/11/29 11:25:19;;;;;;;;;;;;;;;;;;5052644;28;19912;-84
2022/11/29 11:27:44;;;;;;;;;;;;;;;;;;5039387;28;19920;-78
2022/11/29 11:30:09;;;;;;;;;;;;;;;;;;5035776;28;19920;-74
2022/11/29 11:32:35;;;;;;;;;;;;;;;;;;5057334;28;20221;-73
2022/11/29 11:35:00;;;;;;;;;;;;;;;;;;5057895;28;21858;-72
2022/11/29 11:37:25;;;;;;;;;;;;;;;;;;5054355;28;20359;-74
2022/11/29 11:39:50;;;;;;;;;;;;;;;;;;5036104;28;19951;-73
2022/11/29 11:44:59;;;;;;;;;;;;;;;;;;5053434;28;20305;-73
2022/11/29 11:47:25;;;;;;;;;;;;;;;;;;5036321;28;19927;-80
2022/11/29 11:49:51;;;;;;;;;;;;;;;;;;5036011;28;19991;-82
2022/11/29 11:52:16;;;;;;;;;;;;;;;;;;5036790;28;19923;-84
2022/11/29 11:54:41;;;;;;;;;;;;;;;;;;5046514;28;19912;-83
2022/11/29 11:57:06;;;;;;;;;;;;;;;;;;5036084;28;19920;-83
2022/11/29 11:59:31;;;;;;;;;;;;;;;;;;5037348;28;19932;-85
2022/11/29 12:01:57;;;;;;;;;;;;;;;;;;5038612;28;19917;-82
2022/11/29 12:04:22;;;;;;;;;;;;;;;;;;5027336;28;20172;-73
2022/11/29 12:06:47;;;;;;;;;;;;;;;;;;5034576;28;19912;-82
2022/11/29 12:09:15;;;;;;;;;;;;;;;;;;5025984;28;19924;-75
2022/11/29 12:11:40;;;;;;;;;;;;;;;;;;5035524;28;20360;-78
2022/11/29 12:14:05;;;;;;;;;;;;;;;;;;5034851;28;19955;-81
2022/11/29 12:16:31;;;;;;;;;;;;;;;;;;5035584;28;19920;-81
2022/11/29 12:18:56;;;;;;;;;;;;;;;;;;5035185;28;19917;-78
2022/11/29 12:21:21;;;;;;;;;;;;;;;;;;5051452;28;19935;-79
2022/11/29 12:23:47;;;;;;;;;;;;;;;;;;5035616;28;20027;-84
2022/11/29 12:26:13;;;;;;;;;;;;;;;;;;5030789;28;19952;-85
2022/11/29 12:28:38;;;;;;;;;;;;;;;;;;5025118;28;19955;-79
2022/11/29 12:31:03;;;;;;;;;;;;;;;;;;5034834;28;19924;-81
2022/11/29 12:33:28;;;;;;;;;;;;;;;;;;5033130;28;19916;-85
2022/11/29 12:35:54;;;;;;;;;;;;;;;;;;5050364;28;19924;-86
2022/11/29 12:38:19;;;;;;;;;;;;;;;;;;5046888;28;19912;-85
2022/11/29 12:40:44;;;;;;;;;;;;;;;;;;5050808;28;19917;-78
2022/11/29 12:43:09;;;;;;;;;;;;;;;;;;5032929;28;19923;-81
2022/11/29 12:45:37;;;;;;;;;;;;;;;;;;5035996;28;19913;-85
2022/11/29 12:48:03;;;;;;;;;;;;;;;;;;5035241;28;20111;-85
2022/11/29 12:50:29;;;;;;;;;;;;;;;;;;5053202;28;19912;-83
2022/11/29 12:52:54;;;;;;;;;;;;;;;;;;5050938;28;19970;-83
2022/11/29 12:55:19;;;;;;;;;;;;;;;;;;5051618;28;19913;-84
2022/11/29 12:57:44;;;;;;;;;;;;;;;;;;5051749;28;20022;-83
2022/11/29 13:00:10;;;;;;;;;;;;;;;;;;5051317;28;19920;-83
2022/11/29 13:02:41;;;;;;;;;;;;;;;;;;5051575;28;20019;-74
2022/11/29 13:05:25;;;;;;;;;;;;;;;;;;5037542;28;19920;-74
2022/11/29 13:07:59;;;;;;;;;;;;;;;;;;5036093;28;19919;-76
2022/11/29 13:10:24;;;;;;;;;;;;;;;;;;5041696;28;20335;-75
2022/11/29 13:12:49;;;;;;;;;;;;;;;;;;5051877;28;20339;-74
2022/11/29 13:15:15;;;;;;;;;;;;;;;;;;5034783;28;20336;-74
2022/11/29 13:17:40;;;;;;;;;;;;;;;;;;5052427;28;19920;-82
2022/11/29 13:20:05;;;;;;;;;;;;;;;;;;5034343;28;19923;-75
2022/11/29 13:22:31;;;;;;;;;;;;;;;;;;5033118;28;20377;-73
2022/11/29 13:24:56;;;;;;;;;;;;;;;;;;5052458;28;19920;-73
2022/11/29 13:27:21;;;;;;;;;;;;;;;;;;5052511;28;19917;-73
2022/11/29 13:29:46;;;;;;;;;;;;;;;;;;5034492;28;20360;-73
2022/11/29 13:32:11;;;;;;;;;;;;;;;;;;5033923;28;19962;-73
2022/11/29 13:34:37;;;;;;;;;;;;;;;;;;5034473;28;19913;-74
2022/11/29 13:37:02;;;;;;;;;;;;;;;;;;5051899;28;19966;-79
2022/11/29 13:39:27;;;;;;;;;;;;;;;;;;5051989;28;19966;-74
2022/11/29 13:41:52;;;;;;;;;;;;;;;;;;5041863;28;19909;-74
2022/11/29 13:44:17;;;;;;;;;;;;;;;;;;5034545;28;19919;-76
2022/11/29 13:46:43;;;;;;;;;;;;;;;;;;5034538;28;19960;-75
2022/11/29 13:49:08;;;;;;;;;;;;;;;;;;5052625;28;19908;-74
2022/11/29 13:51:33;;;;;;;;;;;;;;;;;;5033739;28;19927;-73
2022/11/29 13:53:58;;;;;;;;;;;;;;;;;;5034575;28;19912;-72
2022/11/29 13:56:23;;;;;;;;;;;;;;;;;;5052037;28;19936;-80
2022/11/29 13:58:49;;;;;;;;;;;;;;;;;;5034354;28;19912;-83
2022/11/29 14:01:14;;;;;;;;;;;;;;;;;;5034440;28;20331;-85
2022/11/29 14:03:39;;;;;;;;;;;;;;;;;;5037830;28;19920;-81
2022/11/29 14:06:04;;;;;;;;;;;;;;;;;;5041545;28;19995;-83
2022/11/29 14:08:32;;;;;;;;;;;;;;;;;;5053950;28;19920;-83
2022/11/29 14:10:57;;;;;;;;;;;;;;;;;;5035317;28;20341;-85
2022/11/29 14:13:22;;;;;;;;;;;;;;;;;;5058491;28;19967;-78
2022/11/29 14:15:48;;;;;;;;;;;;;;;;;;5053537;28;19913;-75
2022/11/29 14:18:13;;;;;;;;;;;;;;;;;;5034134;28;19920;-79
2022/11/29 14:20:38;;;;;;;;;;;;;;;;;;5032686;28;19917;-79
2022/11/29 14:23:03;;;;;;;;;;;;;;;;;;5050094;28;20282;-79
2022/11/29 14:25:28;;;;;;;;;;;;;;;;;;5032775;28;20412;-81
2022/11/29 14:27:54;;;;;;;;;;;;;;;;;;5031621;28;19912;-79
2022/11/29 14:30:19;;;;;;;;;;;;;;;;;;5034532;28;20390;-80
2022/11/29 14:32:44;;;;;;;;;;;;;;;;;;5053396;28;19990;-77
2022/11/29 14:35:09;;;;;;;;;;;;;;;;;;5056020;28;20362;-70
2022/11/29 14:37:35;;;;;;;;;;;;;;;;;;5037130;28;19920;-70
2022/11/29 14:40:00;;;;;;;;;;;;;;;;;;5037308;28;19916;-71
2022/11/29 14:42:25;;;;;;;;;;;;;;;;;;5054795;28;20276;-70
2022/11/29 14:44:50;;;;;;;;;;;;;;;;;;5042053;28;19915;-70
2022/11/29 14:47:15;;;;;;;;;;;;;;;;;;5041290;28;19952;-70
2022/11/29 14:49:40;;;;;;;;;;;;;;;;;;5055556;28;20374;-80
2022/11/29 14:52:06;;;;;;;;;;;;;;;;;;5054351;28;20069;-72
2022/11/29 14:54:31;;;;;;;;;;;;;;;;;;5035974;28;20359;-78
2022/11/29 14:56:56;;;;;;;;;;;;;;;;;;5054424;28;19913;-77
2022/11/29 14:59:21;;;;;;;;;;;;;;;;;;5055263;28;19920;-76
2022/11/29 15:01:46;;;;;;;;;;;;;;;;;;5054566;28;19919;-77
2022/11/29 15:04:12;;;;;;;;;;;;;;;;;;5037476;28;20485;-76
2022/11/29 15:06:37;;;;;;;;;;;;;;;;;;5036456;28;20321;-77
2022/11/29 15:09:02;;;;;;;;;;;;;;;;;;5037344;28;19912;-74
2022/11/29 15:11:27;;;;;;;;;;;;;;;;;;5053806;28;19924;-71
2022/11/29 15:13:55;;;;;;;;;;;;;;;;;;5055058;28;19916;-72
2022/11/29 15:16:20;;;;;;;;;;;;;;;;;;5039368;28;19971;-71
2022/11/29 15:18:45;;;;;;;;;;;;;;;;;;5042124;28;19920;-71
2022/11/29 15:21:10;;;;;;;;;;;;;;;;;;5036983;28;19959;-72
2022/11/29 15:23:36;;;;;;;;;;;;;;;;;;5035798;28;19912;-72
2022/11/29 15:26:01;;;;;;;;;;;;;;;;;;5036225;28;20291;-72
2022/11/29 15:28:26;;;;;;;;;;;;;;;;;;5054538;28;20309;-74
2022/11/29 15:30:51;;;;;;;;;;;;;;;;;;5036628;28;20412;-71
2022/11/29 15:33:16;;;;;;;;;;;;;;;;;;5053864;28;19913;-71
2022/11/29 15:35:42;;;;;;;;;;;;;;;;;;5036700;28;20020;-72
2022/11/29 15:38:07;;;;;;;;;;;;;;;;;;5053249;28;19963;-71
2022/11/29 15:40:37;;;;;;;;;;;;;;;;;;5036021;28;20003;-71
2022/11/29 15:43:03;;;;;;;;;;;;;;;;;;5035731;28;20014;-71
2022/11/29 15:45:29;;;;;;;;;;;;;;;;;;5054623;28;19913;-69
2022/11/29 15:47:54;;;;;;;;;;;;;;;;;;5036746;28;19954;-71
2022/11/29 15:50:19;;;;;;;;;;;;;;;;;;5043647;28;19916;-71
2022/11/29 15:52:44;;;;;;;;;;;;;;;;;;5035497;28;19966;-71
2022/11/29 15:55:10;;;;;;;;;;;;;;;;;;5035987;28;19913;-72
2022/11/29 15:57:35;;;;;;;;;;;;;;;;;;5054043;28;19916;-71
2022/11/29 16:00:00;;;;;;;;;;;;;;;;;;5053769;28;20070;-72
2022/11/29 16:02:26;;;;;;;;;;;;;;;;;;5035125;28;19950;-71
2022/11/29 16:04:51;;;;;;;;;;;;;;;;;;5022096;28;19916;-71
2022/11/29 16:07:16;;;;;;;;;;;;;;;;;;5035430;28;19913;-71
2022/11/29 16:09:42;;;;;;;;;;;;;;;;;;5036041;28;19913;-72
2022/11/29 16:12:07;;;;;;;;;;;;;;;;;;5035019;28;19920;-72
2022/11/29 16:14:32;;;;;;;;;;;;;;;;;;5035934;28;20477;-72
2022/11/29 16:16:58;;;;;;;;;;;;;;;;;;5053902;28;19936;-72
2022/11/29 16:19:23;;;;;;;;;;;;;;;;;;5035697;28;19913;-71
2022/11/29 16:21:48;;;;;;;;;;;;;;;;;;5042530;28;20195;-69
2022/11/29 16:24:14;;;;;;;;;;;;;;;;;;5053014;28;19912;-76
2022/11/29 16:26:39;;;;;;;;;;;;;;;;;;5035139;28;20425;-74
2022/11/29 16:29:04;;;;;;;;;;;;;;;;;;5034391;28;20351;-74
2022/11/29 16:31:30;;;;;;;;;;;;;;;;;;5034877;28;20422;-72
2022/11/29 16:33:55;;;;;;;;;;;;;;;;;;5033097;28;20335;-75
2022/11/29 16:36:20;;;;;;;;;;;;;;;;;;5034155;28;20402;-73
2022/11/29 16:38:45;;;;;;;;;;;;;;;;;;5051741;28;19913;-74
2022/11/29 16:41:10;;;;;;;;;;;;;;;;;;5051873;28;19916;-72
2022/11/29 16:43:36;;;;;;;;;;;;;;;;;;5035300;28;19920;-80
2022/11/29 16:46:01;;;;;;;;;;;;;;;;;;5035267;28;19917;-83